Time;durP1;ratioP1;P1;durP2;ratioP2;P2;SDS_P1;SDS_P2;PMS_P1;PMS_P2;Temp;Humidity;BMP_temperature;BMP_pressure;BME280_temperature;BME280_humidity;BME280_pressure;Samples;Min_cycle;Max_cycle;Signal;HPM_P1;HPM_P2
2022/06/08 00:01:45;;;;;;;12.78;2.80;;;;;;;15.80;66.04;100742.80;1907467;75;21126;-63
2022/06/08 00:04:16;;;;;;;7.97;2.55;;;;;;;15.79;66.48;100748.60;1908814;75;21016;-63
2022/06/08 00:06:45;;;;;;;9.13;3.60;;;;;;;15.76;66.23;100740.81;1908372;75;21121;-63
2022/06/08 00:09:13;;;;;;;20.15;3.25;;;;;;;15.76;65.99;100739.48;1908203;75;21043;-63
2022/06/08 00:11:42;;;;;;;10.45;3.27;;;;;;;15.73;66.10;100737.45;1908787;75;21067;-63
2022/06/08 00:14:12;;;;;;;6.12;2.20;;;;;;;15.69;66.42;100741.25;1908458;75;21055;-63
2022/06/08 00:16:42;;;;;;;11.65;2.37;;;;;;;15.66;66.36;100746.28;1908422;75;21126;-63
2022/06/08 00:19:11;;;;;;;9.38;2.35;;;;;;;15.63;66.35;100741.14;1908326;75;21054;-63
2022/06/08 00:21:40;;;;;;;7.00;2.55;;;;;;;15.60;66.27;100740.88;1908254;75;21129;-60
2022/06/08 00:24:09;;;;;;;5.42;1.75;;;;;;;15.54;66.48;100737.72;1908775;75;21046;-61
2022/06/08 00:26:38;;;;;;;11.57;2.30;;;;;;;15.51;66.32;100736.11;1908407;75;21116;-59
2022/06/08 00:29:07;;;;;;;13.95;5.60;;;;;;;15.48;66.22;100735.44;1908273;75;21514;-63
2022/06/08 00:31:37;;;;;;;26.68;11.78;;;;;;;15.44;66.32;100735.61;1908586;75;21161;-63
2022/06/08 00:34:06;;;;;;;26.70;14.58;;;;;;;15.42;66.33;100732.69;1911142;74;21591;-67
2022/06/08 00:36:34;;;;;;;30.57;12.47;;;;;;;15.40;66.50;100729.23;1911434;74;21034;-65
2022/06/08 00:39:03;;;;;;;18.05;10.55;;;;;;;15.37;66.53;100734.27;1911222;74;21098;-58
2022/06/08 00:41:41;;;;;;;22.58;8.00;;;;;;;15.36;66.53;100729.05;1911160;74;21078;-60
2022/06/08 00:44:25;;;;;;;20.75;5.87;;;;;;;15.31;66.86;100727.12;1910955;75;21113;-63
2022/06/08 00:46:55;;;;;;;11.97;3.87;;;;;;;15.28;66.73;100731.31;1909763;74;21031;-64
2022/06/08 00:49:29;;;;;;;9.28;4.67;;;;;;;15.24;66.85;100736.78;1911273;75;21108;-64
2022/06/08 00:52:00;;;;;;;11.43;3.08;;;;;;;15.21;66.87;100730.80;1911844;74;21605;-63
2022/06/08 00:54:38;;;;;;;13.50;3.00;;;;;;;15.18;66.98;100735.83;1911291;74;21055;-66
2022/06/08 00:57:15;;;;;;;14.83;2.45;;;;;;;15.16;67.12;100730.21;1911038;75;21031;-63
2022/06/08 00:59:47;;;;;;;10.00;2.22;;;;;;;15.13;66.99;100735.23;1911465;74;21039;-63
2022/06/08 01:02:16;;;;;;;11.08;2.42;;;;;;;15.10;66.93;100735.88;1910894;75;21075;-62
2022/06/08 01:04:46;;;;;;;8.08;2.77;;;;;;;15.05;67.36;100735.69;1911402;74;21114;-62
2022/06/08 01:07:19;;;;;;;11.57;2.20;;;;;;;15.04;67.35;100740.59;1910885;74;21107;-59
2022/06/08 01:09:50;;;;;;;14.20;2.62;;;;;;;15.01;67.74;100735.48;1911197;74;21167;-63
2022/06/08 01:12:21;;;;;;;8.48;2.55;;;;;;;15.00;67.70;100737.74;1911471;74;21465;-62
2022/06/08 01:14:54;;;;;;;10.50;2.40;;;;;;;15.00;67.53;100741.72;1909998;75;21111;-64
2022/06/08 01:17:23;;;;;;;9.63;2.40;;;;;;;15.00;67.66;100742.20;1911257;74;21054;-62
2022/06/08 01:19:53;;;;;;;9.18;2.47;;;;;;;14.98;67.73;100743.61;1910381;75;21134;-62
2022/06/08 01:22:23;;;;;;;7.92;2.67;;;;;;;14.96;67.89;100744.65;1911018;74;21396;-61
2022/06/08 01:24:54;;;;;;;7.28;2.30;;;;;;;14.94;67.90;100743.41;1910464;74;21604;-61
2022/06/08 01:27:30;;;;;;;12.75;2.92;;;;;;;14.97;67.94;100743.69;1910018;75;21236;-61
2022/06/08 01:30:17;;;;;;;13.70;5.15;;;;;;;14.97;67.94;100746.34;1911004;75;21043;-61
2022/06/08 01:33:20;;;;;;;11.00;5.47;;;;;;;14.94;68.06;100746.51;1909613;74;21224;-61
2022/06/08 01:36:01;;;;;;;8.55;5.55;;;;;;;14.90;68.12;100736.55;1908328;75;21109;-62
2022/06/08 01:38:47;;;;;;;15.83;5.58;;;;;;;14.86;68.13;100741.64;1906368;75;21066;-62
2022/06/08 01:41:38;;;;;;;15.15;5.08;;;;;;;14.83;68.30;100736.55;1908177;75;21105;-61
2022/06/08 01:44:10;;;;;;;12.50;4.05;;;;;;;14.78;68.32;100738.59;1908435;75;21028;-61
2022/06/08 01:46:58;;;;;;;14.13;5.20;;;;;;;14.73;68.47;100737.98;1906236;75;21101;-61
2022/06/08 01:49:32;;;;;;;6.65;3.20;;;;;;;14.71;68.46;100726.14;1908427;75;21047;-62
2022/06/08 01:52:10;;;;;;;6.10;2.27;;;;;;;14.71;68.61;100730.12;1908198;75;21043;-62
2022/06/08 01:55:13;;;;;;;10.75;2.65;;;;;;;14.73;68.64;100727.39;1908296;75;21032;-61
2022/06/08 01:57:45;;;;;;;8.55;6.80;;;;;;;14.74;68.45;100733.94;1908117;74;21605;-61
2022/06/08 02:00:26;;;;;;;9.15;5.92;;;;;;;14.75;68.24;100734.30;1908272;75;21147;-61
2022/06/08 02:03:16;;;;;;;13.90;3.02;;;;;;;14.76;68.26;100737.83;1908184;74;21071;-61
2022/06/08 02:06:03;;;;;;;6.45;2.17;;;;;;;14.77;68.28;100735.09;1908337;75;21486;-62
2022/06/08 02:08:45;;;;;;;8.43;3.12;;;;;;;14.82;68.39;100734.82;1908262;75;21150;-61
2022/06/08 02:11:27;;;;;;;4.67;2.80;;;;;;;14.90;68.46;100731.24;1908369;74;21680;-66
2022/06/08 02:13:59;;;;;;;5.25;3.35;;;;;;;14.99;68.41;100725.89;1908361;75;21067;-65
2022/06/08 02:16:44;;;;;;;8.68;3.62;;;;;;;15.06;68.39;100733.40;1903988;75;21095;-69
2022/06/08 02:19:19;;;;;;;3.65;2.70;;;;;;;15.15;68.46;100735.16;1908443;75;21067;-61
2022/06/08 02:21:51;;;;;;;4.72;2.75;;;;;;;15.27;68.35;100739.75;1908428;75;21587;-61
2022/06/08 02:24:29;;;;;;;7.00;4.97;;;;;;;15.36;68.30;100744.52;1908392;74;21039;-62
2022/06/08 02:27:00;;;;;;;8.38;5.62;;;;;;;15.44;68.10;100751.53;1908325;75;21039;-62
2022/06/08 02:29:32;;;;;;;8.30;5.25;;;;;;;15.53;67.96;100753.25;1908370;75;21602;-67
2022/06/08 02:32:04;;;;;;;8.70;4.60;;;;;;;15.65;67.85;100760.48;1906160;75;21158;-66
2022/06/08 02:34:36;;;;;;;8.45;5.05;;;;;;;15.72;67.75;100756.52;1911046;74;21118;-65
2022/06/08 02:37:20;;;;;;;14.00;7.70;;;;;;;15.86;67.68;100754.85;1911574;74;21074;-66
2022/06/08 02:40:05;;;;;;;15.08;10.18;;;;;;;16.00;67.49;100749.07;1911205;74;21071;-65
2022/06/08 02:42:38;;;;;;;18.17;10.15;;;;;;;16.15;67.26;100753.91;1911227;74;21067;-65
2022/06/08 02:45:11;;;;;;;12.37;7.37;;;;;;;16.32;67.04;100758.64;1911525;74;21141;-64
2022/06/08 02:47:44;;;;;;;13.25;8.20;;;;;;;16.45;66.79;100758.28;1910743;75;21373;-61
2022/06/08 02:50:17;;;;;;;7.80;3.72;;;;;;;16.59;66.67;100754.23;1911657;74;21071;-61
2022/06/08 02:52:49;;;;;;;10.63;4.22;;;;;;;16.74;66.42;100754.20;1911412;74;21554;-61
2022/06/08 02:55:27;;;;;;;7.35;4.12;;;;;;;16.82;66.19;100757.23;1911371;74;21485;-61
2022/06/08 02:58:20;;;;;;;9.50;5.70;;;;;;;16.93;66.05;100756.09;1909980;75;21517;-61
2022/06/08 03:00:51;;;;;;;9.40;4.62;;;;;;;17.06;65.77;100752.61;1911188;74;21552;-61
2022/06/08 03:03:38;;;;;;;10.28;4.75;;;;;;;17.14;65.58;100752.97;1911093;74;21596;-61
2022/06/08 03:06:15;;;;;;;9.88;3.87;;;;;;;17.24;65.53;100750.05;1910736;75;21116;-61
2022/06/08 03:08:52;;;;;;;9.10;2.17;;;;;;;17.44;65.50;100757.19;1911193;74;21171;-61
2022/06/08 03:11:22;;;;;;;4.58;2.05;;;;;;;17.61;65.37;100754.22;1911833;74;21030;-61
2022/06/08 03:14:03;;;;;;;5.87;1.72;;;;;;;17.73;65.06;100749.39;1911345;74;21039;-61
2022/06/08 03:16:39;;;;;;;38.75;15.83;;;;;;;17.87;64.87;100755.59;1911175;75;21560;-61
2022/06/08 03:19:10;;;;;;;26.70;13.35;;;;;;;18.00;64.59;100756.47;1910896;75;21612;-61
2022/06/08 03:21:40;;;;;;;10.58;5.62;;;;;;;18.09;64.18;100758.48;1911218;74;21043;-61
2022/06/08 03:24:09;;;;;;;50.90;30.00;;;;;;;18.14;63.88;100756.33;1911384;74;21563;-61
2022/06/08 03:26:43;;;;;;;13.62;8.05;;;;;;;18.27;63.77;100762.13;1911206;74;21533;-61
2022/06/08 03:29:12;;;;;;;10.63;4.45;;;;;;;18.32;63.44;100758.67;1910516;75;21035;-61
2022/06/08 03:31:40;;;;;;;8.75;2.42;;;;;;;18.41;63.32;100757.17;1911301;74;21580;-61
2022/06/08 03:34:09;;;;;;;17.85;5.08;;;;;;;18.52;63.43;100761.23;1908624;75;21055;-61
2022/06/08 03:36:38;;;;;;;25.65;10.50;;;;;;;18.65;63.32;100749.20;1908602;75;21031;-60
2022/06/08 03:39:08;;;;;;;35.75;12.45;;;;;;;18.77;63.30;100748.28;1908337;75;21079;-60
2022/06/08 03:41:38;;;;;;;16.15;7.53;;;;;;;18.95;63.10;100747.45;1908473;74;21055;-61
2022/06/08 03:44:07;;;;;;;10.25;4.60;;;;;;;19.14;62.99;100740.25;1907215;75;21110;-61
2022/06/08 03:46:38;;;;;;;8.53;3.72;;;;;;;19.25;62.44;100742.95;1908429;75;21438;-63
2022/06/08 03:49:08;;;;;;;5.75;3.12;;;;;;;19.35;62.18;100744.93;1908285;74;21501;-63
2022/06/08 03:51:40;;;;;;;6.10;2.75;;;;;;;19.47;62.03;100748.02;1908586;75;21104;-68
2022/06/08 03:54:13;;;;;;;7.15;3.40;;;;;;;19.63;61.91;100756.55;1908419;75;21031;-68
2022/06/08 03:56:43;;;;;;;3.55;1.70;;;;;;;19.86;61.64;100755.28;1908440;75;21101;-68
2022/06/08 03:59:12;;;;;;;4.15;1.80;;;;;;;20.07;61.38;100752.77;1908551;75;21478;-68
2022/06/08 04:01:41;;;;;;;3.08;1.70;;;;;;;20.18;60.78;100758.61;1908240;75;21051;-68
2022/06/08 04:04:11;;;;;;;7.85;1.87;;;;;;;20.34;60.12;100757.72;1908592;74;21047;-60
2022/06/08 04:06:42;;;;;;;3.67;1.25;;;;;;;20.46;59.35;100761.75;1908341;75;21109;-63
2022/06/08 04:09:12;;;;;;;6.08;2.33;;;;;;;20.58;58.72;100755.39;1908188;75;21419;-63
2022/06/08 04:11:40;;;;;;;5.90;2.10;;;;;;;20.73;58.08;100751.52;1908500;75;21055;-62
2022/06/08 04:14:10;;;;;;;6.00;2.65;;;;;;;20.95;57.61;100753.74;1908570;75;21023;-62
2022/06/08 04:16:39;;;;;;;8.68;3.65;;;;;;;21.14;57.10;100746.39;1908524;75;21075;-63
2022/06/08 04:19:10;;;;;;;12.80;3.55;;;;;;;21.38;56.53;100748.84;1908053;75;21079;-62
2022/06/08 04:21:40;;;;;;;16.27;4.20;;;;;;;21.63;56.16;100750.79;1908367;74;21493;-60
2022/06/08 04:24:12;;;;;;;17.42;4.00;;;;;;;21.93;55.69;100748.16;1908819;75;21071;-58
2022/06/08 04:26:43;;;;;;;13.48;3.83;;;;;;;22.18;55.26;100751.36;1907249;75;21087;-60
2022/06/08 04:29:14;;;;;;;9.20;4.33;;;;;;;22.35;54.88;100746.74;1906987;75;21091;-60
2022/06/08 04:31:43;;;;;;;14.85;3.92;;;;;;;22.59;54.31;100749.53;1908358;75;21035;-59
2022/06/08 04:34:15;;;;;;;16.93;4.95;;;;;;;22.87;54.05;100740.33;1897569;75;21204;-61
2022/06/08 04:36:44;;;;;;;27.77;5.42;;;;;;;23.20;53.51;100743.16;1883798;76;21509;-64
2022/06/08 04:39:15;;;;;;;8.05;3.60;;;;;;;23.49;53.25;100753.85;1883752;75;21038;-65
2022/06/08 04:41:46;;;;;;;11.00;4.33;;;;;;;23.75;52.67;100747.86;1883708;75;21160;-65
2022/06/08 04:44:17;;;;;;;9.20;3.47;;;;;;;23.96;52.19;100745.50;1883988;76;21021;-65
2022/06/08 04:46:46;;;;;;;19.62;4.35;;;;;;;24.18;51.78;100745.63;1883882;75;21089;-65
2022/06/08 04:49:16;;;;;;;13.43;4.17;;;;;;;24.41;51.37;100745.59;1883468;75;21106;-61
2022/06/08 04:51:46;;;;;;;11.78;2.80;;;;;;;24.56;50.79;100747.30;1883861;75;21065;-61
2022/06/08 04:54:16;;;;;;;6.80;3.87;;;;;;;24.82;50.57;100746.06;1883841;76;21010;-61
2022/06/08 04:56:44;;;;;;;19.77;3.45;;;;;;;25.01;50.25;100749.14;1883780;76;21540;-60
2022/06/08 04:59:18;;;;;;;18.27;3.85;;;;;;;25.31;49.89;100747.07;1883776;76;21103;-60
2022/06/08 05:01:45;;;;;;;6.33;1.90;;;;;;;25.55;49.32;100748.27;1883743;75;21117;-63
2022/06/08 05:04:14;;;;;;;8.45;2.30;;;;;;;25.68;48.78;100743.81;1883785;76;21112;-63
2022/06/08 05:06:45;;;;;;;6.05;3.12;;;;;;;25.78;48.21;100748.09;1883967;76;21034;-62
2022/06/08 05:09:14;;;;;;;10.78;3.15;;;;;;;25.79;47.89;100743.03;1883793;75;21524;-66
2022/06/08 05:11:44;;;;;;;5.22;1.95;;;;;;;25.97;47.59;100746.22;1883526;75;21395;-69
2022/06/08 05:14:14;;;;;;;8.68;2.35;;;;;;;26.26;47.05;100736.38;1883749;76;21504;-69
2022/06/08 05:16:44;;;;;;;6.30;2.42;;;;;;;26.50;46.54;100738.31;1883857;76;21062;-62
2022/06/08 05:19:12;;;;;;;7.80;3.98;;;;;;;26.66;45.71;100740.77;1883915;74;21044;-62
2022/06/08 05:21:41;;;;;;;7.03;2.10;;;;;;;26.72;45.42;100745.51;1883718;75;21124;-62
2022/06/08 05:24:11;;;;;;;5.70;1.57;;;;;;;26.88;45.04;100736.09;1883558;75;21541;-62
2022/06/08 05:26:41;;;;;;;8.55;2.08;;;;;;;26.89;44.66;100732.39;1882386;76;21093;-62
2022/06/08 05:29:11;;;;;;;3.27;1.65;;;;;;;27.16;44.52;100727.66;1883878;76;21034;-61
2022/06/08 05:31:40;;;;;;;4.80;1.65;;;;;;;27.30;44.11;100729.73;1883583;75;21046;-63
2022/06/08 05:34:09;;;;;;;5.20;1.22;;;;;;;27.52;44.05;100733.59;1884484;75;21112;-64
2022/06/08 05:36:38;;;;;;;3.83;1.67;;;;;;;27.49;43.29;100730.39;1908307;75;21120;-64
2022/06/08 05:39:08;;;;;;;5.28;1.05;;;;;;;27.59;43.05;100739.14;1908050;75;21092;-64
2022/06/08 05:41:40;;;;;;;4.78;1.50;;;;;;;27.76;42.60;100731.87;1907385;75;21609;-66
2022/06/08 05:44:09;;;;;;;4.42;2.00;;;;;;;27.79;42.06;100734.73;1908741;75;21532;-61
2022/06/08 05:46:40;;;;;;;1.98;1.10;;;;;;;28.05;41.96;100732.67;1908898;75;21070;-66
2022/06/08 05:49:09;;;;;;;10.32;1.95;;;;;;;28.36;41.80;100729.66;1904120;74;21087;-60
2022/06/08 05:51:40;;;;;;;2.92;1.70;;;;;;;28.48;41.41;100729.08;1906859;75;21175;-61
2022/06/08 05:54:09;;;;;;;4.90;2.30;;;;;;;28.62;40.88;100729.38;1897805;75;21045;-63
2022/06/08 05:56:41;;;;;;;4.65;1.22;;;;;;;28.71;40.55;100724.23;1905195;75;21101;-64
2022/06/08 05:59:09;;;;;;;5.80;1.50;;;;;;;28.61;39.75;100727.70;1907317;75;21055;-61
2022/06/08 06:01:39;;;;;;;8.65;1.65;;;;;;;28.50;38.88;100729.75;1907692;74;21129;-61
2022/06/08 06:04:09;;;;;;;2.40;1.20;;;;;;;28.45;39.09;100726.72;1908554;74;21527;-62
2022/06/08 06:06:46;;;;;;;5.20;1.52;;;;;;;28.49;38.57;100732.11;1908362;75;21059;-62
2022/06/08 06:09:09;;;;;;;8.30;1.40;;;;;;;28.42;38.49;100730.30;1906334;75;21039;-63
2022/06/08 06:11:38;;;;;;;5.28;1.55;;;;;;;28.45;38.29;100722.66;1908567;74;21050;-64
2022/06/08 06:14:08;;;;;;;7.03;2.58;;;;;;;28.54;38.41;100722.14;1908275;74;21525;-62
2022/06/08 06:16:38;;;;;;;4.75;2.15;;;;;;;28.68;38.26;100718.68;1908534;74;21505;-62
2022/06/08 06:19:07;;;;;;;6.15;1.87;;;;;;;29.01;38.34;100713.03;1908741;75;21058;-61
2022/06/08 06:21:40;;;;;;;4.95;2.15;;;;;;;29.26;37.88;100711.48;1862601;75;21070;-62
2022/06/08 06:24:17;;;;;;;5.25;1.60;;;;;;;29.34;37.46;100707.86;1908375;75;21103;-64
2022/06/08 06:26:52;;;;;;;6.97;1.50;;;;;;;29.37;37.12;100703.43;1906035;75;21175;-64
2022/06/08 06:29:28;;;;;;;8.63;2.52;;;;;;;29.39;36.79;100704.09;1907865;75;21095;-65
2022/06/08 06:32:01;;;;;;;8.43;2.42;;;;;;;29.74;36.93;100699.84;1906150;75;21518;-65
2022/06/08 06:34:31;;;;;;;;;;;;;;;30.06;36.37;100702.36;1910202;75;21162;-65
2022/06/08 06:37:00;;;;;;;5.08;1.70;;;;;;;30.54;36.81;100694.12;1907954;74;20109;-67
2022/06/08 06:39:30;;;;;;;4.55;1.80;;;;;;;30.87;35.89;100695.48;1908490;75;21071;-68
2022/06/08 06:42:01;;;;;;;3.47;1.52;;;;;;;31.09;35.61;100701.25;1864070;76;21109;-68
2022/06/08 06:44:31;;;;;;;4.12;1.62;;;;;;;31.32;35.20;100697.48;1868081;76;21124;-68
2022/06/08 06:47:11;;;;;;;8.13;2.45;;;;;;;31.30;34.93;100701.75;1846284;77;21559;-69
2022/06/08 06:49:44;;;;;;;3.08;1.72;;;;;;;31.12;34.61;100698.15;1868144;76;21071;-63
2022/06/08 06:52:14;;;;;;;7.78;1.27;;;;;;;30.98;34.35;100693.63;1868758;77;21027;-63
2022/06/08 06:54:43;;;;;;;6.72;1.30;;;;;;;30.64;34.28;100698.39;1868940;77;21429;-64
2022/06/08 06:57:13;;;;;;;3.98;1.27;;;;;;;30.53;35.00;100694.30;1868818;77;21035;-61
2022/06/08 06:59:43;;;;;;;3.45;1.17;;;;;;;30.46;35.14;100693.38;1868870;77;21007;-61
2022/06/08 07:02:18;;;;;;;8.60;1.70;;;;;;;30.35;34.88;100692.00;1868874;77;21426;-61
2022/06/08 07:04:47;;;;;;;3.58;1.30;;;;;;;30.27;34.77;100688.86;1868970;77;21567;-61
2022/06/08 07:07:16;;;;;;;2.75;1.20;;;;;;;30.62;34.90;100690.44;1868802;76;21085;-62
2022/06/08 07:09:45;;;;;;;1.52;0.93;;;;;;;30.71;34.75;100690.63;1868741;76;21552;-60
2022/06/08 07:12:16;;;;;;;4.03;1.50;;;;;;;30.88;34.53;100693.09;1868784;76;21136;-63
2022/06/08 07:14:53;;;;;;;1.92;1.30;;;;;;;30.97;34.35;100697.39;1868380;76;21144;-61
2022/06/08 07:17:22;;;;;;;7.87;1.98;;;;;;;31.05;34.08;100691.81;1868764;77;21058;-61
2022/06/08 07:19:50;;;;;;;4.28;1.98;;;;;;;31.10;34.39;100696.14;1868779;77;21514;-66
2022/06/08 07:22:19;;;;;;;4.12;1.62;;;;;;;31.02;34.03;100689.47;1868758;77;21042;-61
2022/06/08 07:24:48;;;;;;;5.25;1.67;;;;;;;30.86;34.12;100685.13;1868881;77;21051;-61
2022/06/08 07:27:17;;;;;;;4.00;1.40;;;;;;;30.69;34.14;100676.89;1868821;77;21063;-60
2022/06/08 07:29:46;;;;;;;5.40;1.60;;;;;;;30.74;34.22;100683.43;1868734;77;21093;-60
2022/06/08 07:32:15;;;;;;;1.70;1.20;;;;;;;30.57;34.14;100690.16;1868739;77;21104;-61
2022/06/08 07:34:43;;;;;;;2.60;1.00;;;;;;;30.52;34.30;100686.65;1868878;77;21093;-61
2022/06/08 07:37:12;;;;;;;7.78;1.70;;;;;;;30.60;34.30;100691.98;1868916;77;21031;-61
2022/06/08 07:39:41;;;;;;;2.52;1.02;;;;;;;30.62;34.62;100678.20;1868635;77;21458;-59
2022/06/08 07:42:10;;;;;;;6.25;1.80;;;;;;;30.69;34.26;100673.69;1914525;74;21055;-60
2022/06/08 07:44:38;;;;;;;8.85;1.60;;;;;;;30.52;34.23;100679.86;1939182;74;21007;-60
2022/06/08 07:47:07;;;;;;;4.83;2.00;;;;;;;30.75;34.52;100671.54;1939233;74;21051;-64
2022/06/08 07:49:49;;;;;;;4.17;1.42;;;;;;;31.10;34.26;100679.00;1939177;74;21093;-64
2022/06/08 07:52:16;;;;;;;4.37;1.32;;;;;;;31.43;34.35;100676.53;1936329;74;21439;-64
2022/06/08 07:54:46;;;;;;;3.85;1.20;;;;;;;31.98;33.92;100672.56;1905484;75;21165;-63
2022/06/08 07:57:17;;;;;;;2.10;1.30;;;;;;;32.02;33.37;100678.44;1919222;74;21015;-61
2022/06/08 07:59:48;;;;;;;4.95;1.47;;;;;;;32.06;33.12;100672.97;1939198;74;21074;-61
2022/06/08 08:02:17;;;;;;;4.45;1.50;;;;;;;32.03;32.97;100674.72;1939113;74;21047;-63
2022/06/08 08:04:46;;;;;;;8.03;1.85;;;;;;;32.32;33.04;100663.52;1938982;74;21074;-63
2022/06/08 08:07:15;;;;;;;5.58;1.55;;;;;;;32.32;32.73;100666.23;1939113;74;21032;-62
2022/06/08 08:09:44;;;;;;;11.75;2.08;;;;;;;32.28;32.76;100652.71;1929129;72;21094;-61
2022/06/08 08:12:12;;;;;;;8.00;2.02;;;;;;;32.27;32.59;100652.91;1934473;74;21024;-63
2022/06/08 08:14:41;;;;;;;4.80;2.05;;;;;;;32.41;32.46;100656.53;1923503;74;21108;-64
2022/06/08 08:17:10;;;;;;;13.68;1.65;;;;;;;32.29;31.99;100661.19;1928668;74;21089;-66
2022/06/08 08:19:39;;;;;;;7.22;2.05;;;;;;;32.25;32.02;100657.20;1919789;74;21149;-61
2022/06/08 08:22:09;;;;;;;9.98;2.42;;;;;;;32.15;32.16;100656.77;1926193;74;21414;-66
2022/06/08 08:24:38;;;;;;;5.60;1.82;;;;;;;32.08;32.43;100649.09;1939051;74;21541;-63
2022/06/08 08:27:06;;;;;;;3.40;1.50;;;;;;;32.01;32.33;100648.19;1913498;74;21148;-60
2022/06/08 08:29:35;;;;;;;7.15;1.87;;;;;;;31.90;32.47;100649.07;1910094;75;21088;-61
2022/06/08 08:32:04;;;;;;;5.83;1.82;;;;;;;31.93;32.59;100649.20;1910304;75;21023;-60
2022/06/08 08:34:33;;;;;;;9.03;1.72;;;;;;;32.13;32.86;100648.80;1910277;75;20999;-60
2022/06/08 08:37:02;;;;;;;12.33;1.72;;;;;;;32.15;32.09;100643.14;1910215;75;21023;-57
2022/06/08 08:39:30;;;;;;;5.65;1.62;;;;;;;32.05;32.30;100631.78;1883838;72;21479;-60
2022/06/08 08:44:49;;;;;;;5.60;1.62;;;;;;;31.82;32.52;100638.90;1912018;74;21552;-62
2022/06/08 08:47:49;;;;;;;3.83;1.40;;;;;;;31.45;32.59;100635.50;1933366;74;21032;-61
2022/06/08 08:50:36;;;;;;;5.22;1.72;;;;;;;31.18;32.88;100634.80;1934887;74;21580;-62
2022/06/08 08:53:23;;;;;;;7.42;1.55;;;;;;;30.77;33.10;100627.34;1936128;73;21094;-63
2022/06/08 08:56:01;;;;;;;8.95;1.87;;;;;;;30.38;33.52;100623.20;1935834;74;21556;-64
2022/06/08 08:58:31;;;;;;;5.95;1.60;;;;;;;30.16;33.85;100622.30;1935761;74;21126;-62
2022/06/08 09:01:05;;;;;;;4.70;1.92;;;;;;;30.08;34.27;100624.28;1935633;74;21101;-62
2022/06/08 09:03:39;;;;;;;7.75;2.05;;;;;;;29.91;34.61;100626.38;1935749;74;21101;-67
2022/06/08 09:06:23;;;;;;;12.70;2.12;;;;;;;29.84;34.76;100630.35;1935656;74;21478;-72
2022/06/08 09:09:00;;;;;;;6.92;1.65;;;;;;;29.75;35.03;100623.34;1935833;74;21106;-64
2022/06/08 09:11:35;;;;;;;6.72;1.70;;;;;;;29.86;35.06;100617.95;1935685;73;21028;-64
2022/06/08 09:14:09;;;;;;;3.80;1.25;;;;;;;30.10;35.00;100624.93;1935772;74;21039;-63
2022/06/08 09:16:46;;;;;;;2.70;1.42;;;;;;;30.09;34.73;100628.17;1935959;73;21028;-64
2022/06/08 09:19:30;;;;;;;4.35;1.60;;;;;;;30.06;34.87;100627.70;1935293;74;21490;-64
2022/06/08 09:22:02;;;;;;;9.33;2.00;;;;;;;30.17;35.03;100627.20;1943365;73;21095;-63
2022/06/08 09:24:49;;;;;;;5.70;1.70;;;;;;;30.48;34.97;100619.33;1933791;74;21031;-63
2022/06/08 09:27:23;;;;;;;7.92;1.47;;;;;;;30.55;34.74;100621.06;1935816;74;21510;-64
2022/06/08 09:30:21;;;;;;;2.15;1.35;;;;;;;30.72;34.71;100617.56;1935736;74;21031;-63
2022/06/08 09:32:53;;;;;;;3.77;2.02;;;;;;;30.90;34.64;100618.45;1935991;74;21051;-64
2022/06/08 09:35:26;;;;;;;8.20;1.55;;;;;;;31.40;34.69;100618.95;1935937;74;21003;-64
2022/06/08 09:37:55;;;;;;;;;;;;;;;31.87;34.46;100607.30;1938694;74;21035;-64
2022/06/08 09:40:40;;;;;;;6.70;1.42;;;;;;;32.27;33.70;100610.16;1934857;74;20116;-67
2022/06/08 09:43:29;;;;;;;4.25;1.37;;;;;;;32.02;32.25;100604.42;1937343;74;21067;-66
2022/06/08 09:46:07;;;;;;;9.35;1.82;;;;;;;31.82;32.40;100604.87;1939066;74;21101;-65
2022/06/08 09:51:42;;;;;;;3.92;2.47;;;;;;;31.91;32.07;100607.20;1938975;74;21011;-66
2022/06/08 09:54:22;;;;;;;9.35;1.62;;;;;;;31.89;31.99;100606.57;1939508;74;21489;-66
2022/06/08 09:57:01;;;;;;;5.08;1.30;;;;;;;31.89;32.15;100601.12;1939182;74;21067;-66
2022/06/08 09:59:38;;;;;;;4.37;1.47;;;;;;;31.75;31.50;100591.22;1939476;74;21231;-66
2022/06/08 10:02:28;;;;;;;6.22;1.52;;;;;;;31.51;32.10;100597.48;1925181;74;21594;-66
2022/06/08 10:05:02;;;;;;;3.60;1.32;;;;;;;31.46;31.93;100597.73;1938971;74;21122;-66
2022/06/08 10:07:45;;;;;;;3.85;1.50;;;;;;;31.39;31.96;100590.89;1939413;74;21096;-66
2022/06/08 10:10:27;;;;;;;2.37;1.07;;;;;;;31.32;32.05;100589.51;1938996;74;21023;-66
2022/06/08 10:12:59;;;;;;;1.70;1.15;;;;;;;31.30;32.20;100583.44;1939128;74;21478;-66
2022/06/08 10:15:30;;;;;;;1.30;1.00;;;;;;;31.27;32.29;100578.91;1938891;74;21521;-66
2022/06/08 10:18:20;;;;;;;4.08;1.50;;;;;;;31.07;32.06;100577.42;1938957;74;21454;-67
2022/06/08 10:20:59;;;;;;;6.47;1.40;;;;;;;30.86;32.07;100576.41;1939095;74;21511;-65
2022/06/08 10:23:36;;;;;;;4.33;1.55;;;;;;;30.69;32.23;100578.57;1939026;74;21573;-66
2022/06/08 10:26:16;;;;;;;12.55;1.75;;;;;;;30.91;32.67;100575.83;1939237;74;21454;-65
2022/06/08 10:29:05;;;;;;;7.20;1.35;;;;;;;31.21;32.68;100573.75;1939134;74;21031;-65
2022/06/08 10:31:43;;;;;;;6.40;1.80;;;;;;;31.33;32.43;100571.30;1939135;74;21056;-66
2022/06/08 10:34:24;;;;;;;5.33;1.77;;;;;;;31.46;32.10;100570.53;1939312;74;21051;-66
2022/06/08 10:36:58;;;;;;;3.47;1.23;;;;;;;31.69;32.20;100562.94;1939439;74;21519;-65
2022/06/08 10:39:28;;;;;;;4.30;1.30;;;;;;;31.86;31.73;100570.21;1939352;74;21035;-65
2022/06/08 10:45:30;;;;;;;4.75;1.50;;;;;;;31.67;30.78;100550.55;1939109;74;21024;-65
2022/06/08 10:48:02;;;;;;;5.70;1.87;;;;;;;31.55;30.83;100551.14;1938775;74;21102;-65
2022/06/08 10:50:33;;;;;;;5.30;1.22;;;;;;;31.34;30.68;100544.43;1939265;74;21004;-66
2022/06/08 10:56:32;;;;;;;6.12;1.62;;;;;;;30.99;30.13;100534.91;1939086;74;21479;-66
2022/06/08 10:59:10;;;;;;;5.53;1.00;;;;;;;30.98;30.57;100531.86;1937338;74;21109;-66
2022/06/08 11:01:56;;;;;;;5.00;0.98;;;;;;;31.00;30.06;100539.83;1930012;74;21039;-66
2022/06/08 11:04:35;;;;;;;3.05;0.93;;;;;;;30.95;30.11;100536.33;1939164;74;21530;-66
2022/06/08 11:07:07;;;;;;;7.47;1.15;;;;;;;30.95;30.19;100536.33;1939156;74;21004;-67
2022/06/08 11:09:46;;;;;;;4.80;1.27;;;;;;;31.01;30.36;100538.80;1939150;74;21555;-66
2022/06/08 11:12:18;;;;;;;3.98;1.10;;;;;;;30.93;30.13;100539.77;1939303;74;21528;-66
2022/06/08 11:14:52;;;;;;;3.52;1.60;;;;;;;30.76;30.34;100538.67;1939219;74;21454;-66
2022/06/08 11:17:27;;;;;;;10.10;1.20;;;;;;;30.66;30.46;100523.77;1939222;74;21063;-66
2022/06/08 11:20:14;;;;;;;2.22;1.50;;;;;;;30.61;30.62;100537.94;1939118;74;21027;-66
2022/06/08 11:22:48;;;;;;;0.90;0.62;;;;;;;30.57;31.05;100533.94;1938978;74;21510;-66
2022/06/08 11:25:26;;;;;;;9.38;1.27;;;;;;;30.49;30.56;100524.05;1939121;74;21035;-66
2022/06/08 11:28:32;;;;;;;4.95;1.55;;;;;;;30.42;30.61;100520.44;1938924;74;21019;-66
2022/06/08 11:31:04;;;;;;;1.70;1.02;;;;;;;30.43;30.60;100521.27;1938728;74;21482;-66
2022/06/08 11:33:47;;;;;;;3.27;1.07;;;;;;;30.56;30.64;100520.02;1939211;74;21089;-66
2022/06/08 11:36:19;;;;;;;4.87;1.27;;;;;;;30.59;30.39;100520.47;1939254;74;21517;-66
2022/06/08 11:38:53;;;;;;;2.33;1.30;;;;;;;30.63;30.38;100522.27;1939433;74;21528;-66
2022/06/08 11:41:25;;;;;;;2.33;0.93;;;;;;;30.72;30.51;100517.54;1939157;74;21027;-67
2022/06/08 11:43:53;;;;;;;1.47;0.60;;;;;;;30.76;30.29;100528.33;1938971;74;21137;-66
2022/06/08 11:46:43;;;;;;;2.30;1.22;;;;;;;30.75;30.08;100528.03;1939065;74;21474;-66
2022/06/08 11:49:34;;;;;;;2.70;1.45;;;;;;;30.69;29.99;100519.28;1939220;74;21027;-65
2022/06/08 11:52:25;;;;;;;3.40;1.10;;;;;;;30.65;30.04;100509.33;1939267;74;21093;-66
2022/06/08 11:55:08;;;;;;;7.62;1.35;;;;;;;30.66;30.11;100516.45;1939207;74;21031;-65
2022/06/08 11:57:39;;;;;;;8.25;2.47;;;;;;;30.60;30.07;100503.67;1939114;74;21422;-65
2022/06/08 12:00:23;;;;;;;4.87;1.52;;;;;;;30.51;30.38;100514.36;1939022;74;21590;-66
2022/06/08 12:03:01;;;;;;;3.62;1.17;;;;;;;30.48;30.47;100502.52;1939174;74;21016;-66
2022/06/08 12:05:33;;;;;;;3.80;1.20;;;;;;;30.49;30.32;100515.05;1939161;74;21580;-65
2022/06/08 12:08:19;;;;;;;4.30;1.60;;;;;;;30.54;30.35;100505.80;1939607;74;21483;-66